createdAt,value
2023-01-18T00:01:45.566Z,1.54
2023-01-18T00:04:17.888Z,1.59
2023-01-18T00:06:50.385Z,1.62
2023-01-18T00:09:22.604Z,1.61
2023-01-18T00:11:54.806Z,1.58
2023-01-18T00:14:27.011Z,1.54
2023-01-18T00:16:59.261Z,1.52
2023-01-18T00:19:31.452Z,1.55
2023-01-18T00:22:03.715Z,1.59
2023-01-18T00:24:35.981Z,1.65
2023-01-18T00:27:09.730Z,1.66
2023-01-18T00:29:42.047Z,1.64
2023-01-18T00:32:14.768Z,1.61
2023-01-18T00:34:49.139Z,1.61
2023-01-18T00:37:25.222Z,1.66
2023-01-18T00:39:57.582Z,1.68
2023-01-18T00:42:47.977Z,1.68
2023-01-18T00:45:20.220Z,1.66
2023-01-18T00:47:52.466Z,1.60
2023-01-18T00:50:24.990Z,1.60
2023-01-18T00:53:00.589Z,1.59
2023-01-18T00:55:33.199Z,1.62
2023-01-18T00:58:05.433Z,1.64
2023-01-18T01:00:38.910Z,1.65
2023-01-18T01:03:13.188Z,1.66
2023-01-18T01:06:03.879Z,1.59
2023-01-18T01:08:36.698Z,1.57
2023-01-18T01:11:12.114Z,1.56
2023-01-18T01:14:02.004Z,1.58
2023-01-18T01:16:51.963Z,1.64
2023-01-18T01:19:41.983Z,1.69
2023-01-18T01:22:32.425Z,1.69
2023-01-18T01:25:22.425Z,1.68
2023-01-18T01:27:55.348Z,1.66
2023-01-18T01:30:27.634Z,1.67
2023-01-18T01:33:00.043Z,1.72
2023-01-18T01:35:32.276Z,1.75
2023-01-18T01:38:04.491Z,1.77
2023-01-18T01:40:36.666Z,1.78
2023-01-18T01:43:12.847Z,1.81
2023-01-18T01:45:45.453Z,1.83
2023-01-18T01:48:17.669Z,1.87
2023-01-18T01:50:50.046Z,1.88
2023-01-18T01:53:22.558Z,1.99
2023-01-18T01:55:55.500Z,2.03
2023-01-18T01:58:30.341Z,2.06
2023-01-18T02:01:01.170Z,2.11
2023-01-18T02:03:33.641Z,2.11
2023-01-18T02:06:13.850Z,2.06
2023-01-18T02:08:48.470Z,2.06
2023-01-18T02:11:20.794Z,2.06
2023-01-18T02:13:53.001Z,2.07
2023-01-18T02:16:32.261Z,2.11
2023-01-18T02:19:14.024Z,2.13
2023-01-18T02:21:47.414Z,2.13
2023-01-18T02:24:49.617Z,2.11
2023-01-18T02:27:26.429Z,2.05
2023-01-18T02:30:13.032Z,2.10
2023-01-18T02:33:07.035Z,2.13
2023-01-18T02:35:46.473Z,2.14
2023-01-18T02:38:22.379Z,2.14
2023-01-18T02:41:08.759Z,2.16
2023-01-18T02:44:00.950Z,2.18
2023-01-18T02:46:39.052Z,2.15
2023-01-18T02:49:13.305Z,2.12
2023-01-18T02:51:45.746Z,2.14
2023-01-18T02:54:25.099Z,2.16
2023-01-18T02:56:57.438Z,2.21
2023-01-18T02:59:33.145Z,2.24
2023-01-18T03:02:08.467Z,2.26
2023-01-18T03:04:43.891Z,2.26
2023-01-18T03:07:19.181Z,2.22
2023-01-18T03:09:51.698Z,2.21
2023-01-18T03:12:28.289Z,2.24
2023-01-18T03:15:08.763Z,2.27
2023-01-18T03:17:45.334Z,2.28
2023-01-18T03:20:19.903Z,2.29
2023-01-18T03:23:21.486Z,2.32
2023-01-18T03:25:56.053Z,2.31
2023-01-18T03:28:48.692Z,2.29
2023-01-18T03:31:41.508Z,2.28
2023-01-18T03:34:18.443Z,2.31
2023-01-18T03:36:53.228Z,2.31
2023-01-18T03:39:28.479Z,2.37
2023-01-18T03:42:04.429Z,2.40
2023-01-18T03:44:39.111Z,2.41
2023-01-18T03:47:11.609Z,2.40
2023-01-18T03:49:43.936Z,2.39
2023-01-18T03:52:21.664Z,2.40
2023-01-18T03:55:00.881Z,2.42
2023-01-18T03:57:37.217Z,2.49
2023-01-18T04:00:12.401Z,2.50
2023-01-18T04:02:46.303Z,2.53
2023-01-18T04:05:20.011Z,2.51
2023-01-18T04:07:52.748Z,2.49
2023-01-18T04:10:25.157Z,2.48
2023-01-18T04:12:58.236Z,2.50
2023-01-18T04:15:30.811Z,2.51
2023-01-18T04:18:02.928Z,2.51
2023-01-18T04:20:35.167Z,2.47
2023-01-18T04:23:07.618Z,2.46
2023-01-18T04:25:41.026Z,2.44
2023-01-18T04:28:13.509Z,2.48
2023-01-18T04:30:45.701Z,2.50
2023-01-18T04:33:18.071Z,2.55
2023-01-18T04:35:51.946Z,2.62
2023-01-18T04:38:24.277Z,2.61
2023-01-18T04:40:56.526Z,2.66
2023-01-18T04:43:29.796Z,2.65
2023-01-18T04:46:02.199Z,2.67
2023-01-18T04:48:34.552Z,2.71
2023-01-18T04:51:07.329Z,2.74
2023-01-18T04:53:39.501Z,2.72
2023-01-18T04:56:12.234Z,2.77
2023-01-18T04:58:44.391Z,2.75
2023-01-18T05:01:17.614Z,2.72
2023-01-18T05:03:49.915Z,2.76
2023-01-18T05:06:22.705Z,2.77
2023-01-18T05:08:54.915Z,2.80
2023-01-18T05:11:27.226Z,2.83
2023-01-18T05:13:59.553Z,2.79
2023-01-18T05:16:31.922Z,2.84
2023-01-18T05:19:04.456Z,2.79
2023-01-18T05:21:36.669Z,2.82
2023-01-18T05:24:09.654Z,2.84
2023-01-18T05:26:41.860Z,2.85
2023-01-18T05:29:14.139Z,2.91
2023-01-18T05:31:46.617Z,2.91
2023-01-18T05:34:18.923Z,2.87
2023-01-18T05:36:51.483Z,2.89
2023-01-18T05:39:23.768Z,2.81
2023-01-18T05:41:55.950Z,2.82
2023-01-18T05:44:28.226Z,2.81
2023-01-18T05:47:00.759Z,2.83
2023-01-18T05:49:33.149Z,2.83
2023-01-18T05:52:05.738Z,2.80
2023-01-18T05:54:37.953Z,2.76
2023-01-18T05:57:11.051Z,2.73
2023-01-18T05:59:43.151Z,2.71
2023-01-18T06:02:15.241Z,2.71
2023-01-18T06:04:47.837Z,2.73
2023-01-18T06:07:20.276Z,2.74
2023-01-18T06:09:52.579Z,2.74
2023-01-18T06:12:24.952Z,2.72
2023-01-18T06:14:57.146Z,2.70
2023-01-18T06:17:31.436Z,2.74
2023-01-18T06:20:03.997Z,2.77
2023-01-18T06:22:36.557Z,2.79
2023-01-18T06:25:10.518Z,2.79
2023-01-18T06:27:42.922Z,2.79
2023-01-18T06:30:16.184Z,2.77
2023-01-18T06:32:49.339Z,2.80
2023-01-18T06:35:22.191Z,2.83
2023-01-18T06:37:56.554Z,2.88
2023-01-18T06:40:29.188Z,2.87
2023-01-18T06:43:01.793Z,2.84
2023-01-18T06:45:34.305Z,2.80
2023-01-18T06:48:07.062Z,2.77
2023-01-18T06:50:39.195Z,2.78
2023-01-18T06:53:11.319Z,2.80
2023-01-18T06:55:43.601Z,2.83
2023-01-18T06:58:15.853Z,2.87
2023-01-18T07:00:48.219Z,2.88
2023-01-18T07:03:20.499Z,2.86
2023-01-18T07:05:53.244Z,2.84
2023-01-18T07:08:27.077Z,2.87
2023-01-18T07:10:59.848Z,2.90
2023-01-18T07:13:32.053Z,2.91
2023-01-18T07:16:04.724Z,2.90
2023-01-18T07:18:37.505Z,2.89
2023-01-18T07:21:10.573Z,2.89
2023-01-18T07:23:44.363Z,2.92
2023-01-18T07:26:18.542Z,2.95
2023-01-18T07:28:51.219Z,2.96
2023-01-18T07:31:25.250Z,2.98
2023-01-18T07:33:57.416Z,2.94
2023-01-18T07:36:29.538Z,2.95
2023-01-18T07:39:03.401Z,2.97
2023-01-18T07:41:35.731Z,2.99
2023-01-18T07:44:09.908Z,3.00
2023-01-18T07:46:43.449Z,2.99
2023-01-18T07:49:15.766Z,2.97
2023-01-18T07:51:48.123Z,2.97
2023-01-18T07:54:20.397Z,2.93
2023-01-18T07:56:53.330Z,2.93
2023-01-18T07:59:27.958Z,2.97
2023-01-18T08:02:00.104Z,3.01
2023-01-18T08:04:32.378Z,3.02
2023-01-18T08:07:04.428Z,3.02
2023-01-18T08:09:36.593Z,3.02
2023-01-18T08:12:13.596Z,3.08
2023-01-18T08:14:46.089Z,3.13
2023-01-18T08:17:18.217Z,3.17
2023-01-18T08:19:50.375Z,3.21
2023-01-18T08:22:22.502Z,3.22
2023-01-18T08:24:54.650Z,3.22
2023-01-18T08:27:27.353Z,3.19
2023-01-18T08:29:59.489Z,3.18
2023-01-18T08:32:31.537Z,3.16
2023-01-18T08:35:03.551Z,3.17
2023-01-18T08:37:35.737Z,3.20
2023-01-18T08:40:09.530Z,3.20
2023-01-18T08:42:41.692Z,3.17
2023-01-18T08:45:14.697Z,3.18
2023-01-18T08:47:46.792Z,3.22
2023-01-18T08:50:19.123Z,3.29
2023-01-18T08:53:14.842Z,3.28
2023-01-18T08:55:46.985Z,3.27
2023-01-18T08:58:19.075Z,3.25
2023-01-18T09:00:51.372Z,3.25
2023-01-18T09:03:25.217Z,3.25
2023-01-18T09:05:57.389Z,3.27
2023-01-18T09:08:29.593Z,3.27
2023-01-18T09:11:05.157Z,3.28
2023-01-18T09:13:47.827Z,3.29
2023-01-18T09:16:31.803Z,3.28
2023-01-18T09:19:06.508Z,3.26
2023-01-18T09:21:38.692Z,3.25
2023-01-18T09:24:11.064Z,3.28
2023-01-18T09:26:45.157Z,3.33
2023-01-18T09:29:18.259Z,3.34
2023-01-18T09:31:50.354Z,3.40
2023-01-18T09:34:22.614Z,3.40
2023-01-18T09:36:55.137Z,3.36
2023-01-18T09:39:27.740Z,3.34
2023-01-18T09:42:03.291Z,3.36
2023-01-18T09:44:37.860Z,3.35
2023-01-18T09:47:18.087Z,3.35
2023-01-18T09:49:56.687Z,3.36
2023-01-18T09:52:36.895Z,3.37
2023-01-18T09:55:17.446Z,3.38
2023-01-18T09:58:19.815Z,3.37
2023-01-18T10:00:52.228Z,3.43
2023-01-18T10:03:28.422Z,3.45
2023-01-18T10:06:15.613Z,3.49
2023-01-18T10:08:53.973Z,3.48
2023-01-18T10:11:31.873Z,3.47
2023-01-18T10:14:09.137Z,3.44
2023-01-18T10:16:41.580Z,3.38
2023-01-18T10:19:17.647Z,3.36
2023-01-18T10:21:57.964Z,3.37
2023-01-18T10:24:43.008Z,3.41
2023-01-18T10:27:37.613Z,3.41
2023-01-18T10:30:22.218Z,3.41
2023-01-18T10:32:58.678Z,3.37
2023-01-18T10:35:34.703Z,3.36
2023-01-18T10:38:09.646Z,3.37
2023-01-18T10:40:42.534Z,3.41
2023-01-18T10:43:20.575Z,3.45
2023-01-18T10:45:53.709Z,3.49
2023-01-18T10:48:34.239Z,3.53
2023-01-18T10:51:08.897Z,3.56
2023-01-18T10:53:41.918Z,3.56
2023-01-18T10:56:19.095Z,3.51
2023-01-18T10:58:57.810Z,3.48
2023-01-18T11:01:31.785Z,3.50
2023-01-18T11:04:07.739Z,3.56
2023-01-18T11:06:50.095Z,3.64
2023-01-18T11:09:43.970Z,3.70
2023-01-18T11:12:38.331Z,3.69
2023-01-18T11:15:32.326Z,3.68
2023-01-18T11:18:06.973Z,3.73
2023-01-18T11:20:44.760Z,3.80
2023-01-18T11:23:21.236Z,3.82
2023-01-18T11:25:59.212Z,3.82
2023-01-18T11:28:37.390Z,3.87
2023-01-18T11:31:14.849Z,3.88
2023-01-18T11:33:54.482Z,3.88
2023-01-18T11:36:39.075Z,3.85
2023-01-18T11:39:28.342Z,3.86
2023-01-18T11:42:19.376Z,3.88
2023-01-18T11:45:07.995Z,3.93
2023-01-18T11:47:55.380Z,3.96
2023-01-18T11:50:31.963Z,3.94
2023-01-18T11:53:14.383Z,3.94
2023-01-18T11:55:56.453Z,3.91
2023-01-18T11:58:30.977Z,3.84
2023-01-18T12:01:12.387Z,3.81
2023-01-18T12:03:53.757Z,3.77
2023-01-18T12:06:38.972Z,3.75
2023-01-18T12:09:19.583Z,3.73
2023-01-18T12:12:13.245Z,3.75
2023-01-18T12:15:10.715Z,3.77
2023-01-18T12:18:01.259Z,3.82
2023-01-18T12:20:49.548Z,3.82
2023-01-18T12:23:52.752Z,3.78
2023-01-18T12:26:34.775Z,3.75
2023-01-18T12:29:34.162Z,3.74
2023-01-18T12:32:18.968Z,3.76
2023-01-18T12:34:59.153Z,3.81
2023-01-18T12:37:38.651Z,3.84
2023-01-18T12:40:45.647Z,3.85
2023-01-18T12:43:31.410Z,3.84
2023-01-18T12:46:09.225Z,3.84
2023-01-18T12:48:47.509Z,3.83
2023-01-18T12:51:21.782Z,3.79
2023-01-18T12:53:58.777Z,3.74
2023-01-18T12:56:36.714Z,3.69
2023-01-18T12:59:17.133Z,3.66
2023-01-18T13:01:53.432Z,3.60
2023-01-18T13:04:29.481Z,3.58
2023-01-18T13:07:07.445Z,3.61
2023-01-18T13:09:41.749Z,3.64
2023-01-18T13:12:14.640Z,3.69
2023-01-18T13:14:52.841Z,3.75
2023-01-18T13:17:28.175Z,3.77
2023-01-18T13:20:05.597Z,3.79
2023-01-18T13:22:44.396Z,3.78
2023-01-18T13:25:39.687Z,3.76
2023-01-18T13:28:20.793Z,3.71
2023-01-18T13:31:01.975Z,3.65
2023-01-18T13:33:35.696Z,3.64
2023-01-18T13:36:10.821Z,3.64
2023-01-18T13:38:51.967Z,3.62
2023-01-18T13:41:27.283Z,3.57
2023-01-18T13:44:05.410Z,3.53
2023-01-18T13:46:39.620Z,3.50
2023-01-18T13:49:38.639Z,3.45
2023-01-18T13:52:34.000Z,3.37
2023-01-18T13:55:09.411Z,3.33
2023-01-18T13:57:41.595Z,3.31
2023-01-18T14:00:25.705Z,3.30
2023-01-18T14:03:05.712Z,3.30
2023-01-18T14:05:43.482Z,3.33
2023-01-18T14:08:24.114Z,3.32
2023-01-18T14:10:59.728Z,3.27
2023-01-18T14:14:05.721Z,3.24
2023-01-18T14:16:39.994Z,3.15
2023-01-18T14:19:18.223Z,3.06
2023-01-18T14:22:04.414Z,3.02
2023-01-18T14:24:46.043Z,3.00
2023-01-18T14:27:21.644Z,3.03
2023-01-18T14:29:56.308Z,3.05
2023-01-18T14:32:32.293Z,3.04
2023-01-18T14:35:06.977Z,2.99
2023-01-18T14:37:39.344Z,2.93
2023-01-18T14:40:20.197Z,2.87
2023-01-18T14:42:55.153Z,2.81
2023-01-18T14:45:30.228Z,2.79
2023-01-18T14:48:03.549Z,2.80
2023-01-18T14:50:38.034Z,2.83
2023-01-18T14:53:15.460Z,2.79
2023-01-18T14:56:03.968Z,2.76
2023-01-18T14:58:38.820Z,2.76
2023-01-18T15:01:29.329Z,2.74
2023-01-18T15:04:02.920Z,2.65
2023-01-18T15:06:40.044Z,2.65
2023-01-18T15:09:12.416Z,2.65
2023-01-18T15:11:45.444Z,2.70
2023-01-18T15:14:19.218Z,2.70
2023-01-18T15:16:52.922Z,2.70
2023-01-18T15:19:28.739Z,2.70
2023-01-18T15:22:04.423Z,2.65
2023-01-18T15:24:40.675Z,2.57
2023-01-18T15:27:16.604Z,2.56
2023-01-18T15:29:53.645Z,2.59
2023-01-18T15:32:27.928Z,2.66
2023-01-18T15:35:01.161Z,2.69
2023-01-18T15:37:36.898Z,2.72
2023-01-18T15:40:27.034Z,2.67
2023-01-18T15:43:02.561Z,2.60
2023-01-18T15:45:35.905Z,2.57
2023-01-18T15:48:14.346Z,2.55
2023-01-18T15:50:49.877Z,2.58
2023-01-18T15:53:24.324Z,2.59
2023-01-18T15:55:59.721Z,2.63
2023-01-18T15:58:35.191Z,2.65
2023-01-18T16:01:09.013Z,2.63
2023-01-18T16:03:42.657Z,2.63
2023-01-18T16:06:16.948Z,2.60
2023-01-18T16:09:10.500Z,2.52
2023-01-18T16:11:51.963Z,2.50
2023-01-18T16:14:31.148Z,2.49
2023-01-18T16:17:06.210Z,2.48
2023-01-18T16:19:37.411Z,2.49
2023-01-18T16:22:18.149Z,2.50
2023-01-18T16:24:52.686Z,2.49
2023-01-18T16:27:26.660Z,2.49
2023-01-18T16:30:00.194Z,2.46
2023-01-18T16:32:34.627Z,2.41
2023-01-18T16:35:17.315Z,2.46
2023-01-18T16:37:50.090Z,2.52
2023-01-18T16:40:24.402Z,2.59
2023-01-18T16:43:01.738Z,2.62
2023-01-18T16:45:36.559Z,2.58
2023-01-18T16:48:08.998Z,2.56
2023-01-18T16:50:41.188Z,2.52
2023-01-18T16:53:13.519Z,2.51
2023-01-18T16:55:45.952Z,2.48
2023-01-18T16:58:20.604Z,2.47
2023-01-18T17:00:57.524Z,2.47
2023-01-18T17:03:29.830Z,2.48
2023-01-18T17:06:01.923Z,2.50
2023-01-18T17:08:34.490Z,2.53
2023-01-18T17:11:07.295Z,2.53
2023-01-18T17:13:39.652Z,2.50
2023-01-18T17:16:16.950Z,2.44
2023-01-18T17:18:49.976Z,2.41
2023-01-18T17:21:22.040Z,2.41
2023-01-18T17:23:54.416Z,2.44
2023-01-18T17:26:26.727Z,2.48
2023-01-18T17:28:58.893Z,2.48
2023-01-18T17:31:32.606Z,2.49
2023-01-18T17:34:04.865Z,2.48
2023-01-18T17:36:36.967Z,2.43
2023-01-18T17:39:09.066Z,2.43
2023-01-18T17:41:41.595Z,2.47
2023-01-18T17:44:13.730Z,2.47
2023-01-18T17:46:45.923Z,2.53
2023-01-18T17:49:18.072Z,2.58
2023-01-18T17:51:50.462Z,2.61
2023-01-18T17:54:22.732Z,2.60
2023-01-18T17:56:54.968Z,2.57
2023-01-18T17:59:27.177Z,2.51
2023-01-18T18:01:59.359Z,2.48
2023-01-18T18:04:32.789Z,2.51
2023-01-18T18:07:04.966Z,2.57
2023-01-18T18:09:40.597Z,2.59
2023-01-18T18:12:13.758Z,2.55
2023-01-18T18:14:45.955Z,2.56
2023-01-18T18:17:18.180Z,2.56
2023-01-18T18:19:50.548Z,2.54
2023-01-18T18:22:23.178Z,2.53
2023-01-18T18:24:55.399Z,2.55
2023-01-18T18:27:37.490Z,2.61
2023-01-18T18:30:18.664Z,2.66
2023-01-18T18:32:50.757Z,2.68
2023-01-18T18:35:26.115Z,2.68
2023-01-18T18:37:58.913Z,2.66
2023-01-18T18:40:31.094Z,2.61
2023-01-18T18:43:03.500Z,2.60
2023-01-18T18:45:36.537Z,2.59
2023-01-18T18:48:09.334Z,2.64
2023-01-18T18:50:41.926Z,2.67
2023-01-18T18:53:14.150Z,2.68
2023-01-18T18:55:46.293Z,2.65
2023-01-18T18:58:18.502Z,2.64
2023-01-18T19:00:50.669Z,2.60
2023-01-18T19:03:22.932Z,2.58
2023-01-18T19:05:55.308Z,2.60
2023-01-18T19:08:27.536Z,2.64
2023-01-18T19:10:59.778Z,2.64
2023-01-18T19:13:31.988Z,2.63
2023-01-18T19:16:04.717Z,2.59
2023-01-18T19:18:37.161Z,2.51
2023-01-18T19:21:09.363Z,2.48
2023-01-18T19:23:41.461Z,2.45
2023-01-18T19:26:13.726Z,2.45
2023-01-18T19:28:47.209Z,2.46
2023-01-18T19:31:19.364Z,2.45
2023-01-18T19:33:53.431Z,2.46
2023-01-18T19:36:25.553Z,2.45
2023-01-18T19:39:00.169Z,2.40
2023-01-18T19:41:30.840Z,2.38
2023-01-18T19:44:03.703Z,2.40
2023-01-18T19:46:35.882Z,2.43
2023-01-18T19:49:07.955Z,2.44
2023-01-18T19:51:41.401Z,2.46
2023-01-18T19:54:13.580Z,2.48
2023-01-18T19:56:45.632Z,2.47
2023-01-18T19:59:17.817Z,2.43
2023-01-18T20:01:51.736Z,2.44
2023-01-18T20:04:23.888Z,2.46
2023-01-18T20:06:55.968Z,2.48
2023-01-18T20:09:38.480Z,2.50
2023-01-18T20:12:15.239Z,2.52
2023-01-18T20:14:47.401Z,2.48
2023-01-18T20:17:19.610Z,2.48
2023-01-18T20:19:54.217Z,2.45
2023-01-18T20:22:26.388Z,2.47
2023-01-18T20:24:59.212Z,2.51
2023-01-18T20:27:31.360Z,2.54
2023-01-18T20:30:06.308Z,2.54
2023-01-18T20:32:38.408Z,2.55
2023-01-18T20:35:11.790Z,2.53
2023-01-18T20:37:43.855Z,2.51
2023-01-18T20:40:16.539Z,2.46
2023-01-18T20:42:48.744Z,2.47
2023-01-18T20:45:24.048Z,2.51
2023-01-18T20:47:56.200Z,2.57
2023-01-18T20:50:28.470Z,2.61
2023-01-18T20:53:01.211Z,2.64
2023-01-18T20:55:33.924Z,2.69
2023-01-18T20:58:06.011Z,2.70
2023-01-18T21:00:38.274Z,2.68
2023-01-18T21:03:10.357Z,2.64
2023-01-18T21:05:44.853Z,2.65
2023-01-18T21:08:19.664Z,2.68
2023-01-18T21:10:51.085Z,2.72
2023-01-18T21:13:24.835Z,2.75
2023-01-18T21:15:59.197Z,2.73
2023-01-18T21:18:32.684Z,2.72
2023-01-18T21:21:04.868Z,2.69
2023-01-18T21:23:44.359Z,2.67
2023-01-18T21:29:54.301Z,2.67
2023-01-18T21:32:26.410Z,2.70
2023-01-18T21:34:58.463Z,2.77
2023-01-18T21:37:42.645Z,2.79
2023-01-18T22:47:56.044Z,4.69
2023-01-18T22:50:27.848Z,4.53
2023-01-18T22:52:59.546Z,4.38
2023-01-18T22:55:31.229Z,4.20
2023-01-18T22:58:03.343Z,4.04
2023-01-18T23:00:35.181Z,3.92
2023-01-18T23:03:06.924Z,3.84
2023-01-18T23:05:38.849Z,3.80
2023-01-18T23:08:12.251Z,3.74
2023-01-18T23:10:44.006Z,3.63
2023-01-18T23:13:15.730Z,3.52
2023-01-18T23:16:07.310Z,3.43
2023-01-18T23:18:39.001Z,3.37
2023-01-18T23:21:10.881Z,3.35
2023-01-18T23:23:42.551Z,3.31
2023-01-18T23:26:14.405Z,3.34
2023-01-18T23:28:46.256Z,3.30
2023-01-18T23:31:19.252Z,3.33
2023-01-18T23:33:51.218Z,3.28
2023-01-18T23:36:23.734Z,3.21
2023-01-18T23:39:13.102Z,3.18
2023-01-18T23:42:02.362Z,3.20
2023-01-18T23:44:51.922Z,3.21
2023-01-18T23:47:41.439Z,3.25
2023-01-18T23:50:31.348Z,3.22
2023-01-18T23:53:21.045Z,3.15
2023-01-18T23:55:54.989Z,3.07
2023-01-18T23:58:26.778Z,2.99
